Time,TemperatureF,DewpointF,PressureIn,WindDirection,WindDirectionDegrees,WindSpeedMPH,WindSpeedGustMPH,Humidity,HourlyPrecipIn,Conditions,Clouds,dailyrainin,SoftwareType,DateUTC
2013-02-24 00:02:00,26.4,0.6,29.38,West,270,0.0,0.0,32,0.00,,,0.00,VWS V13.01,2013-02-24 06:02:00,
2013-02-24 00:07:00,26.2,0.4,29.38,West,270,0.0,0.0,32,0.00,,,0.00,VWS V13.01,2013-02-24 06:07:00,
2013-02-24 00:12:00,26.2,0.4,29.38,West,270,0.0,0.0,32,0.00,,,0.00,VWS V13.01,2013-02-24 06:12:00,
2013-02-24 00:17:00,26.2,0.4,29.38,West,270,0.0,0.0,32,0.00,,,0.00,VWS V13.01,2013-02-24 06:17:00,
2013-02-24 00:22:00,25.9,0.1,29.38,East,90,0.0,0.0,32,0.00,,,0.00,VWS V13.01,2013-02-24 06:22:00,
2013-02-24 00:27:00,25.5,-0.2,29.38,East,90,0.0,0.0,32,0.00,,,0.00,VWS V13.01,2013-02-24 06:27:00,
2013-02-24 00:32:00,25.3,0.3,29.38,East,90,0.0,0.0,33,0.00,,,0.00,VWS V13.01,2013-02-24 06:32:00,
2013-02-24 00:37:00,25.0,0.6,29.38,East,90,0.0,0.0,34,0.00,,,0.00,VWS V13.01,2013-02-24 06:37:00,
2013-02-24 00:42:00,24.8,0.4,29.38,East,90,0.0,0.0,34,0.00,,,0.00,VWS V13.01,2013-02-24 06:42:00,
2013-02-24 00:47:00,24.6,0.3,29.38,East,90,0.0,0.0,34,0.00,,,0.00,VWS V13.01,2013-02-24 06:47:00,
2013-02-24 00:52:00,24.8,1.0,29.38,East,90,0.0,0.0,35,0.00,,,0.00,VWS V13.01,2013-02-24 06:52:00,
2013-02-24 00:57:00,24.6,0.9,29.38,East,90,0.0,0.0,35,0.00,,,0.00,VWS V13.01,2013-02-24 06:57:00,
2013-02-24 01:02:00,24.4,0.7,29.38,East,90,0.0,0.0,35,0.00,,,0.00,VWS V13.01,2013-02-24 07:02:00,
2013-02-24 01:07:00,24.3,0.6,29.38,East,90,0.0,0.0,35,0.00,,,0.00,VWS V13.01,2013-02-24 07:07:00,
2013-02-24 01:12:00,24.1,1.0,29.38,East,90,0.0,0.0,36,0.00,,,0.00,VWS V13.01,2013-02-24 07:12:00,
2013-02-24 01:18:00,23.5,0.5,29.38,East,90,0.0,0.0,36,0.00,,,0.00,VWS V13.01,2013-02-24 07:18:00,
2013-02-24 01:23:00,23.0,0.0,29.38,East,90,0.0,0.0,36,0.00,,,0.00,VWS V13.01,2013-02-24 07:23:00,
2013-02-24 01:28:00,22.8,0.5,29.38,East,90,0.0,0.0,37,0.00,,,0.00,VWS V13.01,2013-02-24 07:28:00,
2013-02-24 01:33:00,23.4,2.1,29.38,East,90,0.0,0.0,39,0.00,,,0.00,VWS V13.01,2013-02-24 07:33:00,
2013-02-24 01:38:00,23.7,2.4,29.38,East,90,0.0,0.0,39,0.00,,,0.00,VWS V13.01,2013-02-24 07:38:00,
2013-02-24 01:43:00,23.7,2.4,29.38,East,90,0.0,0.0,39,0.00,,,0.00,VWS V13.01,2013-02-24 07:43:00,
2013-02-24 01:48:00,24.1,3.3,29.38,East,90,0.0,0.0,40,0.00,,,0.00,VWS V13.01,2013-02-24 07:48:00,
2013-02-24 01:53:00,24.3,4.0,29.38,East,90,0.0,0.0,41,0.00,,,0.00,VWS V13.01,2013-02-24 07:53:00,
2013-02-24 01:58:00,24.6,3.8,29.38,SE,135,0.0,0.0,40,0.00,,,0.00,VWS V13.01,2013-02-24 07:58:00,
2013-02-24 02:03:00,24.6,3.2,29.38,SE,135,0.0,0.0,39,0.00,,,0.00,VWS V13.01,2013-02-24 08:03:00,
2013-02-24 02:08:00,24.4,2.5,29.38,SE,135,0.0,0.0,38,0.00,,,0.00,VWS V13.01,2013-02-24 08:08:00,
2013-02-24 02:13:00,24.4,3.0,29.38,SE,135,0.0,0.0,39,0.00,,,0.00,VWS V13.01,2013-02-24 08:13:00,
2013-02-24 02:18:00,24.1,2.7,29.38,SE,135,0.0,0.0,39,0.00,,,0.00,VWS V13.01,2013-02-24 08:18:00,
2013-02-24 02:23:00,23.9,3.1,29.38,SE,135,0.0,0.0,40,0.00,,,0.00,VWS V13.01,2013-02-24 08:23:00,
2013-02-24 02:28:00,23.7,2.9,29.38,SE,135,0.0,0.0,40,0.00,,,0.00,VWS V13.01,2013-02-24 08:28:00,
2013-02-24 02:33:00,23.4,3.2,29.41,SE,135,0.0,0.0,41,0.00,,,0.00,VWS V13.01,2013-02-24 08:33:00,
2013-02-24 02:38:00,23.0,3.3,29.41,SE,135,0.0,0.0,42,0.00,,,0.00,VWS V13.01,2013-02-24 08:38:00,
2013-02-24 02:43:00,22.8,3.2,29.41,SE,135,0.0,0.0,42,0.00,,,0.00,VWS V13.01,2013-02-24 08:43:00,
2013-02-24 02:48:00,22.6,3.0,29.38,SE,135,0.0,0.0,42,0.00,,,0.00,VWS V13.01,2013-02-24 08:48:00,
2013-02-24 02:53:00,22.5,2.8,29.38,SE,135,0.0,0.0,42,0.00,,,0.00,VWS V13.01,2013-02-24 08:53:00,
2013-02-24 02:58:00,22.8,3.7,29.38,SE,135,0.0,0.0,43,0.00,,,0.00,VWS V13.01,2013-02-24 08:58:00,
2013-02-24 03:03:00,23.0,3.8,29.38,SE,135,0.0,0.0,43,0.00,,,0.00,VWS V13.01,2013-02-24 09:03:00,
2013-02-24 03:08:00,23.0,3.8,29.38,SE,135,0.0,0.0,43,0.00,,,0.00,VWS V13.01,2013-02-24 09:08:00,
2013-02-24 03:14:00,22.8,3.7,29.38,SE,135,0.0,0.0,43,0.00,,,0.00,VWS V13.01,2013-02-24 09:14:00,
2013-02-24 03:19:00,22.8,3.7,29.38,SE,135,0.0,0.0,43,0.00,,,0.00,VWS V13.01,2013-02-24 09:19:00,
2013-02-24 03:24:00,22.5,3.4,29.38,SE,135,0.0,0.0,43,0.00,,,0.00,VWS V13.01,2013-02-24 09:24:00,
2013-02-24 03:29:00,22.3,3.2,29.38,SE,135,0.0,0.0,43,0.00,,,0.00,VWS V13.01,2013-02-24 09:29:00,
2013-02-24 03:34:00,21.9,3.4,29.41,SE,135,0.0,0.0,44,0.00,,,0.00,VWS V13.01,2013-02-24 09:34:00,
2013-02-24 03:39:00,21.7,3.2,29.41,SE,135,0.0,0.0,44,0.00,,,0.00,VWS V13.01,2013-02-24 09:39:00,
2013-02-24 03:44:00,21.4,2.9,29.41,SE,135,0.0,0.0,44,0.00,,,0.00,VWS V13.01,2013-02-24 09:44:00,
2013-02-24 03:49:00,21.6,4.0,29.41,SE,135,0.0,0.0,46,0.00,,,0.00,VWS V13.01,2013-02-24 09:49:00,
2013-02-24 03:54:00,21.7,5.1,29.41,SE,135,0.0,0.0,48,0.00,,,0.00,VWS V13.01,2013-02-24 09:54:00,
2013-02-24 03:59:00,21.6,4.9,29.41,ESE,112,0.0,0.0,48,0.00,,,0.00,VWS V13.01,2013-02-24 09:59:00,
2013-02-24 04:04:00,21.0,4.9,29.41,ESE,112,0.0,0.0,49,0.00,,,0.00,VWS V13.01,2013-02-24 10:04:00,
2013-02-24 04:09:00,20.5,4.4,29.41,ESE,112,0.0,0.0,49,0.00,,,0.00,VWS V13.01,2013-02-24 10:09:00,
2013-02-24 04:14:00,20.3,4.6,29.41,ESE,112,0.0,0.0,50,0.00,,,0.00,VWS V13.01,2013-02-24 10:14:00,
2013-02-24 04:19:00,20.3,5.1,29.41,ESE,112,0.0,0.0,51,0.00,,,0.00,VWS V13.01,2013-02-24 10:19:00,
2013-02-24 04:24:00,20.3,5.5,29.41,ESE,112,0.0,0.0,52,0.00,,,0.00,VWS V13.01,2013-02-24 10:24:00,
2013-02-24 04:29:00,20.8,6.8,29.41,ESE,112,0.0,0.0,54,0.00,,,0.00,VWS V13.01,2013-02-24 10:29:00,
2013-02-24 04:34:00,20.8,7.2,29.41,ESE,112,0.0,0.0,55,0.00,,,0.00,VWS V13.01,2013-02-24 10:34:00,
2013-02-24 04:39:00,21.0,7.8,29.41,ESE,112,0.0,0.0,56,0.00,,,0.00,VWS V13.01,2013-02-24 10:39:00,
2013-02-24 04:44:00,21.2,8.4,29.41,ESE,112,0.0,0.0,57,0.00,,,0.00,VWS V13.01,2013-02-24 10:44:00,
2013-02-24 04:49:00,21.4,8.5,29.41,ESE,112,0.0,0.0,57,0.00,,,0.00,VWS V13.01,2013-02-24 10:49:00,
2013-02-24 04:54:00,21.4,8.9,29.41,ESE,112,0.0,0.0,58,0.00,,,0.00,VWS V13.01,2013-02-24 10:54:00,
2013-02-24 04:59:00,21.2,8.7,29.41,ESE,112,0.0,0.0,58,0.00,,,0.00,VWS V13.01,2013-02-24 10:59:00,
2013-02-24 05:05:00,21.2,9.1,29.41,ESE,112,0.0,0.0,59,0.00,,,0.00,VWS V13.01,2013-02-24 11:05:00,
2013-02-24 05:10:00,21.2,8.7,29.41,ESE,112,0.0,0.0,58,0.00,,,0.00,VWS V13.01,2013-02-24 11:10:00,
2013-02-24 05:15:00,21.0,8.9,29.41,East,90,0.0,0.0,59,0.00,,,0.00,VWS V13.01,2013-02-24 11:15:00,
2013-02-24 05:20:00,21.0,8.9,29.41,East,90,0.0,0.0,59,0.00,,,0.00,VWS V13.01,2013-02-24 11:20:00,
2013-02-24 05:25:00,21.0,8.9,29.41,East,90,0.0,0.0,59,0.00,,,0.00,VWS V13.01,2013-02-24 11:25:00,
2013-02-24 05:30:00,21.0,9.3,29.41,East,90,0.0,0.0,60,0.00,,,0.00,VWS V13.01,2013-02-24 11:30:00,
2013-02-24 05:35:00,21.2,9.5,29.44,East,90,0.0,0.0,60,0.00,,,0.00,VWS V13.01,2013-02-24 11:35:00,
2013-02-24 05:40:00,21.2,9.5,29.44,East,90,0.0,0.0,60,0.00,,,0.00,VWS V13.01,2013-02-24 11:40:00,
2013-02-24 05:45:00,21.6,10.2,29.44,East,90,0.0,0.0,61,0.00,,,0.00,VWS V13.01,2013-02-24 11:45:00,
2013-02-24 05:50:00,21.9,10.9,29.44,East,90,0.0,0.0,62,0.00,,,0.00,VWS V13.01,2013-02-24 11:50:00,
2013-02-24 05:55:00,21.9,10.9,29.44,East,90,0.0,0.0,62,0.00,,,0.00,VWS V13.01,2013-02-24 11:55:00,
2013-02-24 06:00:00,21.9,10.6,29.44,East,90,0.0,0.0,61,0.00,,,0.00,VWS V13.01,2013-02-24 12:00:00,
2013-02-24 06:05:00,21.9,10.6,29.44,East,90,0.0,0.0,61,0.00,,,0.00,VWS V13.01,2013-02-24 12:05:00,
2013-02-24 06:10:00,21.9,10.6,29.44,East,90,0.0,0.0,61,0.00,,,0.00,VWS V13.01,2013-02-24 12:10:00,
2013-02-24 06:15:00,21.9,10.6,29.44,East,90,0.0,0.0,61,0.00,,,0.00,VWS V13.01,2013-02-24 12:15:00,
2013-02-24 06:20:00,21.9,10.6,29.44,East,90,0.0,0.0,61,0.00,,,0.00,VWS V13.01,2013-02-24 12:20:00,
2013-02-24 06:25:00,22.1,10.7,29.44,East,90,0.0,0.0,61,0.00,,,0.00,VWS V13.01,2013-02-24 12:25:00,
2013-02-24 06:30:00,22.3,10.9,29.44,East,90,0.0,0.0,61,0.00,,,0.00,VWS V13.01,2013-02-24 12:30:00,
2013-02-24 06:35:00,22.5,11.4,29.44,East,90,0.0,0.0,62,0.00,,,0.00,VWS V13.01,2013-02-24 12:35:00,
2013-02-24 06:41:00,22.5,11.4,29.44,East,90,0.0,0.0,62,0.00,,,0.00,VWS V13.01,2013-02-24 12:41:00,
2013-02-24 06:46:00,22.6,11.6,29.44,East,90,0.0,0.0,62,0.00,,,0.00,VWS V13.01,2013-02-24 12:46:00,
2013-02-24 06:51:00,22.6,12.0,29.44,East,90,0.0,0.0,63,0.00,,,0.00,VWS V13.01,2013-02-24 12:51:00,
2013-02-24 06:56:00,22.8,12.1,29.44,East,90,0.0,0.0,63,0.00,,,0.00,VWS V13.01,2013-02-24 12:56:00,
2013-02-24 07:01:00,22.8,11.8,29.44,East,90,0.0,0.0,62,0.00,,,0.00,VWS V13.01,2013-02-24 13:01:00,
2013-02-24 07:06:00,22.8,11.4,29.44,East,90,0.0,0.0,61,0.00,,,0.00,VWS V13.01,2013-02-24 13:06:00,
2013-02-24 07:11:00,23.2,11.4,29.44,East,90,0.0,0.0,60,0.00,,,0.00,VWS V13.01,2013-02-24 13:11:00,
2013-02-24 07:16:00,23.4,11.5,29.44,East,90,0.0,0.0,60,0.00,,,0.00,VWS V13.01,2013-02-24 13:16:00,
2013-02-24 07:21:00,23.9,11.7,29.44,East,90,0.0,0.0,59,0.00,,,0.00,VWS V13.01,2013-02-24 13:21:00,
2013-02-24 07:26:00,24.3,11.6,29.44,East,90,0.0,0.0,58,0.00,,,0.00,VWS V13.01,2013-02-24 13:26:00,
2013-02-24 07:31:00,24.4,11.0,29.47,East,90,0.0,0.0,56,0.00,,,0.00,VWS V13.01,2013-02-24 13:31:00,
2013-02-24 07:36:00,24.8,10.5,29.47,East,90,0.0,0.0,54,0.00,,,0.00,VWS V13.01,2013-02-24 13:36:00,
2013-02-24 07:42:00,24.8,9.7,29.47,East,90,0.0,0.0,52,0.00,,,0.00,VWS V13.01,2013-02-24 13:42:00,
2013-02-24 07:47:00,25.0,8.5,29.47,East,90,0.0,0.0,49,0.00,,,0.00,VWS V13.01,2013-02-24 13:47:00,
2013-02-24 07:52:00,25.5,8.1,29.47,East,90,0.0,0.0,47,0.00,,,0.00,VWS V13.01,2013-02-24 13:52:00,
2013-02-24 07:57:00,25.5,7.2,29.47,East,90,0.0,0.0,45,0.00,,,0.00,VWS V13.01,2013-02-24 13:57:00,
2013-02-24 08:02:00,25.7,6.8,29.47,East,90,0.0,0.0,44,0.00,,,0.00,VWS V13.01,2013-02-24 14:02:00,
2013-02-24 08:07:00,25.9,6.5,29.47,East,90,0.0,0.0,43,0.00,,,0.00,VWS V13.01,2013-02-24 14:07:00,
2013-02-24 08:12:00,26.1,6.1,29.47,East,90,0.0,0.0,42,0.00,,,0.00,VWS V13.01,2013-02-24 14:12:00,
2013-02-24 08:17:00,26.4,5.9,29.47,East,90,3.6,3.6,41,0.00,,,0.00,VWS V13.01,2013-02-24 14:17:00,
2013-02-24 08:22:00,26.2,4.1,29.47,East,90,3.6,3.6,38,0.00,,,0.00,VWS V13.01,2013-02-24 14:22:00,
2013-02-24 08:27:00,26.8,4.0,29.47,East,90,0.0,0.0,37,0.00,,,0.00,VWS V13.01,2013-02-24 14:27:00,
2013-02-24 08:32:00,27.3,3.9,29.47,East,90,0.0,3.1,36,0.00,,,0.00,VWS V13.01,2013-02-24 14:32:00,
2013-02-24 08:37:00,27.9,3.2,29.47,East,90,3.1,3.1,34,0.00,,,0.00,VWS V13.01,2013-02-24 14:37:00,
2013-02-24 08:43:00,27.9,3.2,29.47,East,90,5.4,5.4,34,0.00,,,0.00,VWS V13.01,2013-02-24 14:43:00,
2013-02-24 08:48:00,28.0,2.7,29.50,East,90,2.7,3.1,33,0.00,,,0.00,VWS V13.01,2013-02-24 14:48:00,
2013-02-24 08:53:00,29.3,3.1,29.50,East,90,0.0,0.0,32,0.00,,,0.00,VWS V13.01,2013-02-24 14:53:00,
2013-02-24 08:58:00,30.2,3.9,29.50,East,90,0.0,0.0,32,0.00,,,0.00,VWS V13.01,2013-02-24 14:58:00,
2013-02-24 09:03:00,31.3,4.2,29.50,East,90,4.0,4.5,31,0.00,,,0.00,VWS V13.01,2013-02-24 15:03:00,
2013-02-24 09:08:00,31.5,3.6,29.50,East,90,4.0,4.9,30,0.00,,,0.00,VWS V13.01,2013-02-24 15:08:00,
2013-02-24 09:13:00,31.8,3.9,29.50,SE,135,2.7,4.9,30,0.00,,,0.00,VWS V13.01,2013-02-24 15:13:00,
2013-02-24 09:18:00,32.5,4.6,29.50,East,90,0.0,0.0,30,0.00,,,0.00,VWS V13.01,2013-02-24 15:18:00,
2013-02-24 09:23:00,32.9,4.9,29.50,ESE,112,2.2,3.6,30,0.00,,,0.00,VWS V13.01,2013-02-24 15:23:00,
2013-02-24 09:28:00,34.0,5.8,29.50,East,90,0.0,3.6,30,0.00,,,0.00,VWS V13.01,2013-02-24 15:28:00,
2013-02-24 09:33:00,34.5,4.0,29.50,East,90,0.0,2.2,27,0.00,,,0.00,VWS V13.01,2013-02-24 15:33:00,
2013-02-24 09:38:00,35.2,4.6,29.50,East,90,3.6,3.6,27,0.00,,,0.00,VWS V13.01,2013-02-24 15:38:00,
2013-02-24 09:43:00,35.4,3.1,29.50,East,90,4.9,6.3,25,0.00,,,0.00,VWS V13.01,2013-02-24 15:43:00,
2013-02-24 09:48:00,35.1,2.8,29.50,East,90,4.0,4.9,25,0.00,,,0.00,VWS V13.01,2013-02-24 15:48:00,
2013-02-24 09:53:00,34.3,2.2,29.50,East,90,3.1,5.8,25,0.00,,,0.00,VWS V13.01,2013-02-24 15:53:00,
2013-02-24 09:58:00,34.7,4.2,29.50,ESE,112,0.0,2.2,27,0.00,,,0.00,VWS V13.01,2013-02-24 15:58:00,
2013-02-24 10:03:00,35.6,4.9,29.50,East,90,0.0,3.6,27,0.00,,,0.00,VWS V13.01,2013-02-24 16:03:00,
2013-02-24 10:08:00,35.8,2.5,29.50,East,90,2.2,4.9,24,0.00,,,0.00,VWS V13.01,2013-02-24 16:08:00,
2013-02-24 10:13:00,35.6,4.9,29.50,East,90,0.0,0.0,27,0.00,,,0.00,VWS V13.01,2013-02-24 16:13:00,
2013-02-24 10:18:00,36.7,3.3,29.50,East,90,0.0,0.0,24,0.00,,,0.00,VWS V13.01,2013-02-24 16:18:00,
2013-02-24 10:23:00,36.3,3.0,29.50,ESE,112,5.4,6.3,24,0.00,,,0.00,VWS V13.01,2013-02-24 16:23:00,
2013-02-24 10:29:00,36.7,3.3,29.50,East,90,0.0,3.6,24,0.00,,,0.00,VWS V13.01,2013-02-24 16:29:00,
2013-02-24 10:34:00,36.7,3.3,29.50,East,90,2.7,5.4,24,0.00,,,0.00,VWS V13.01,2013-02-24 16:34:00,
2013-02-24 10:39:00,37.0,6.2,29.50,ENE,68,0.0,0.0,27,0.00,,,0.00,VWS V13.01,2013-02-24 16:39:00,
2013-02-24 10:44:00,37.0,3.6,29.50,NE,45,0.0,0.0,24,0.00,,,0.00,VWS V13.01,2013-02-24 16:44:00,
2013-02-24 10:49:00,36.9,3.5,29.50,NE,45,0.0,0.0,24,0.00,,,0.00,VWS V13.01,2013-02-24 16:49:00,
2013-02-24 10:54:00,36.3,5.6,29.50,NNE,22,0.0,0.0,27,0.00,,,0.00,VWS V13.01,2013-02-24 16:54:00,
2013-02-24 10:59:00,36.3,5.6,29.50,NNE,22,0.0,0.0,27,0.00,,,0.00,VWS V13.01,2013-02-24 16:59:00,
2013-02-24 11:04:00,36.5,5.7,29.50,NE,45,0.0,0.0,27,0.00,,,0.00,VWS V13.01,2013-02-24 17:04:00,
2013-02-24 11:09:00,36.7,5.9,29.53,North,0,0.0,0.0,27,0.00,,,0.00,VWS V13.01,2013-02-24 17:09:00,
2013-02-24 11:14:00,37.0,6.2,29.53,NE,45,0.0,0.0,27,0.00,,,0.00,VWS V13.01,2013-02-24 17:14:00,
2013-02-24 11:19:00,37.9,6.1,29.53,NE,45,0.0,0.0,26,0.00,,,0.00,VWS V13.01,2013-02-24 17:19:00,
2013-02-24 11:24:00,38.3,6.4,29.53,NNE,22,0.0,0.0,26,0.00,,,0.00,VWS V13.01,2013-02-24 17:24:00,
2013-02-24 11:29:00,37.9,6.1,29.53,NNE,22,0.0,2.7,26,0.00,,,0.00,VWS V13.01,2013-02-24 17:29:00,
2013-02-24 11:34:00,38.1,4.5,29.50,NNE,22,4.5,4.5,24,0.00,,,0.00,VWS V13.01,2013-02-24 17:34:00,
2013-02-24 11:40:00,38.5,6.6,29.50,North,0,0.0,0.0,26,0.00,,,0.00,VWS V13.01,2013-02-24 17:40:00,
2013-02-24 11:45:00,39.4,7.4,29.50,NNE,22,0.0,0.0,26,0.00,,,0.00,VWS V13.01,2013-02-24 17:45:00,
2013-02-24 11:50:00,40.5,5.6,29.50,NE,45,3.6,4.0,23,0.00,,,0.00,VWS V13.01,2013-02-24 17:50:00,
2013-02-24 11:55:00,41.2,6.2,29.50,NE,45,3.1,4.9,23,0.00,,,0.00,VWS V13.01,2013-02-24 17:55:00,
2013-02-24 12:00:00,41.7,4.7,29.50,NNE,22,5.4,5.4,21,0.00,,,0.00,VWS V13.01,2013-02-24 18:00:00,
2013-02-24 12:05:00,41.2,6.2,29.50,NE,45,0.0,4.5,23,0.00,,,0.00,VWS V13.01,2013-02-24 18:05:00,
2013-02-24 12:10:00,41.0,6.1,29.50,NNE,22,0.0,0.0,23,0.00,,,0.00,VWS V13.01,2013-02-24 18:10:00,
2013-02-24 12:15:00,42.1,5.0,29.50,East,90,3.1,4.9,21,0.00,,,0.00,VWS V13.01,2013-02-24 18:15:00,
2013-02-24 12:20:00,42.6,5.4,29.50,East,90,4.9,7.2,21,0.00,,,0.00,VWS V13.01,2013-02-24 18:20:00,
2013-02-24 12:25:00,42.8,4.5,29.50,East,90,4.0,4.9,20,0.00,,,0.00,VWS V13.01,2013-02-24 18:25:00,
2013-02-24 12:30:00,42.8,4.5,29.50,East,90,4.0,6.3,20,0.00,,,0.00,VWS V13.01,2013-02-24 18:30:00,
2013-02-24 12:35:00,42.8,4.5,29.50,East,90,5.4,7.6,20,0.00,,,0.00,VWS V13.01,2013-02-24 18:35:00,
2013-02-24 12:40:00,43.7,5.3,29.50,SE,135,7.6,7.6,20,0.00,,,0.00,VWS V13.01,2013-02-24 18:40:00,
2013-02-24 12:45:00,43.5,5.1,29.50,ESE,112,7.2,10.1,20,0.00,,,0.00,VWS V13.01,2013-02-24 18:45:00,
2013-02-24 12:50:00,43.3,5.0,29.50,East,90,4.9,8.7,20,0.00,,,0.00,VWS V13.01,2013-02-24 18:50:00,
2013-02-24 12:55:00,43.0,4.7,29.50,ESE,112,9.6,10.5,20,0.00,,,0.00,VWS V13.01,2013-02-24 18:55:00,
2013-02-24 13:00:00,42.8,4.5,29.50,ESE,112,7.2,8.1,20,0.00,,,0.00,VWS V13.01,2013-02-24 19:00:00,
2013-02-24 13:05:00,43.5,5.1,29.50,East,90,7.2,7.2,20,0.00,,,0.00,VWS V13.01,2013-02-24 19:05:00,
2013-02-24 13:11:00,43.5,5.1,29.50,East,90,4.9,8.3,20,0.00,,,0.00,VWS V13.01,2013-02-24 19:11:00,
2013-02-24 13:16:00,43.3,5.0,29.50,SE,135,3.6,7.2,20,0.00,,,0.00,VWS V13.01,2013-02-24 19:16:00,
2013-02-24 13:21:00,43.7,5.3,29.47,East,90,4.9,6.7,20,0.00,,,0.00,VWS V13.01,2013-02-24 19:21:00,
2013-02-24 13:26:00,43.5,5.1,29.47,East,90,9.6,9.6,20,0.00,,,0.00,VWS V13.01,2013-02-24 19:26:00,
2013-02-24 13:31:00,43.5,5.1,29.47,SE,135,5.4,5.8,20,0.00,,,0.00,VWS V13.01,2013-02-24 19:31:00,
2013-02-24 13:36:00,43.7,5.3,29.47,SE,135,7.2,10.1,20,0.00,,,0.00,VWS V13.01,2013-02-24 19:36:00,
2013-02-24 13:41:00,44.1,5.6,29.47,East,90,3.1,3.1,20,0.00,,,0.00,VWS V13.01,2013-02-24 19:41:00,
2013-02-24 13:46:00,44.1,5.6,29.47,East,90,4.0,4.0,20,0.00,,,0.00,VWS V13.01,2013-02-24 19:46:00,
2013-02-24 13:51:00,44.6,6.0,29.47,East,90,3.6,6.3,20,0.00,,,0.00,VWS V13.01,2013-02-24 19:51:00,
2013-02-24 13:56:00,44.8,6.2,29.47,East,90,4.0,8.7,20,0.00,,,0.00,VWS V13.01,2013-02-24 19:56:00,
2013-02-24 14:01:00,44.6,6.0,29.47,East,90,5.4,5.8,20,0.00,,,0.00,VWS V13.01,2013-02-24 20:01:00,
2013-02-24 14:06:00,44.8,6.2,29.47,East,90,7.6,7.6,20,0.00,,,0.00,VWS V13.01,2013-02-24 20:06:00,
2013-02-24 14:11:00,44.6,6.0,29.47,East,90,7.6,7.6,20,0.00,,,0.00,VWS V13.01,2013-02-24 20:11:00,
2013-02-24 14:16:00,44.6,6.0,29.47,NE,45,5.8,7.2,20,0.00,,,0.00,VWS V13.01,2013-02-24 20:16:00,
2013-02-24 14:21:00,44.2,5.7,29.47,ESE,112,5.4,6.3,20,0.00,,,0.00,VWS V13.01,2013-02-24 20:21:00,
2013-02-24 14:27:00,44.6,6.0,29.47,East,90,6.3,8.7,20,0.00,,,0.00,VWS V13.01,2013-02-24 20:27:00,
2013-02-24 14:32:00,44.6,6.0,29.44,East,90,8.7,10.1,20,0.00,,,0.00,VWS V13.01,2013-02-24 20:32:00,
2013-02-24 14:37:00,44.6,6.0,29.44,East,90,3.6,7.2,20,0.00,,,0.00,VWS V13.01,2013-02-24 20:37:00,
2013-02-24 14:42:00,44.6,6.0,29.44,East,90,5.8,10.5,20,0.00,,,0.00,VWS V13.01,2013-02-24 20:42:00,
2013-02-24 14:47:00,44.6,6.0,29.44,East,90,7.2,8.1,20,0.00,,,0.00,VWS V13.01,2013-02-24 20:47:00,
2013-02-24 14:52:00,44.6,6.0,29.44,ESE,112,6.7,7.2,20,0.00,,,0.00,VWS V13.01,2013-02-24 20:52:00,
2013-02-24 14:57:00,44.8,6.2,29.44,East,90,5.8,7.2,20,0.00,,,0.00,VWS V13.01,2013-02-24 20:57:00,
2013-02-24 15:02:00,44.8,6.2,29.44,SE,135,7.6,7.6,20,0.00,,,0.00,VWS V13.01,2013-02-24 21:02:00,
2013-02-24 15:07:00,44.4,5.9,29.44,SE,135,4.0,8.1,20,0.00,,,0.00,VWS V13.01,2013-02-24 21:07:00,
2013-02-24 15:12:00,44.6,6.0,29.44,East,90,5.8,5.8,20,0.00,,,0.00,VWS V13.01,2013-02-24 21:12:00,
2013-02-24 15:17:00,45.1,6.5,29.44,East,90,2.7,7.2,20,0.00,,,0.00,VWS V13.01,2013-02-24 21:17:00,
2013-02-24 15:22:00,45.1,6.5,29.44,East,90,4.5,5.8,20,0.00,,,0.00,VWS V13.01,2013-02-24 21:22:00,
2013-02-24 15:27:00,45.1,6.5,29.44,East,90,5.8,7.6,20,0.00,,,0.00,VWS V13.01,2013-02-24 21:27:00,
2013-02-24 15:32:00,45.0,6.3,29.44,East,90,6.7,6.7,20,0.00,,,0.00,VWS V13.01,2013-02-24 21:32:00,
2013-02-24 15:37:00,45.0,6.3,29.44,East,90,4.0,5.8,20,0.00,,,0.00,VWS V13.01,2013-02-24 21:37:00,
2013-02-24 15:42:00,44.8,6.2,29.44,East,90,6.3,6.3,20,0.00,,,0.00,VWS V13.01,2013-02-24 21:42:00,
2013-02-24 15:47:00,45.1,6.5,29.44,SE,135,5.4,5.4,20,0.00,,,0.00,VWS V13.01,2013-02-24 21:47:00,
2013-02-24 15:52:00,45.3,6.6,29.44,East,90,4.9,8.1,20,0.00,,,0.00,VWS V13.01,2013-02-24 21:52:00,
2013-02-24 15:57:00,45.1,6.5,29.44,SE,135,5.4,7.6,20,0.00,,,0.00,VWS V13.01,2013-02-24 21:57:00,
2013-02-24 16:02:00,45.1,6.5,29.44,ESE,112,5.8,6.3,20,0.00,,,0.00,VWS V13.01,2013-02-24 22:02:00,
2013-02-24 16:07:00,45.1,6.5,29.44,East,90,8.3,8.3,20,0.00,,,0.00,VWS V13.01,2013-02-24 22:07:00,
2013-02-24 16:12:00,45.0,6.3,29.44,East,90,4.0,4.9,20,0.00,,,0.00,VWS V13.01,2013-02-24 22:12:00,
2013-02-24 16:17:00,45.0,6.3,29.41,ESE,112,10.1,10.1,20,0.00,,,0.00,VWS V13.01,2013-02-24 22:17:00,
2013-02-24 16:22:00,44.6,6.0,29.41,East,90,5.8,7.2,20,0.00,,,0.00,VWS V13.01,2013-02-24 22:22:00,
2013-02-24 16:27:00,45.0,6.3,29.41,SE,135,3.6,8.3,20,0.00,,,0.00,VWS V13.01,2013-02-24 22:27:00,
2013-02-24 16:32:00,45.0,6.3,29.41,SE,135,4.9,5.8,20,0.00,,,0.00,VWS V13.01,2013-02-24 22:32:00,
2013-02-24 16:37:00,44.8,6.2,29.41,East,90,7.2,7.2,20,0.00,,,0.00,VWS V13.01,2013-02-24 22:37:00,
2013-02-24 16:43:00,44.2,5.7,29.41,SE,135,3.6,8.1,20,0.00,,,0.00,VWS V13.01,2013-02-24 22:43:00,
2013-02-24 16:48:00,44.1,5.6,29.41,East,90,4.0,7.6,20,0.00,,,0.00,VWS V13.01,2013-02-24 22:48:00,
2013-02-24 16:53:00,44.1,5.6,29.41,ESE,112,6.3,6.3,20,0.00,,,0.00,VWS V13.01,2013-02-24 22:53:00,
2013-02-24 16:58:00,43.7,5.3,29.41,East,90,5.4,10.1,20,0.00,,,0.00,VWS V13.01,2013-02-24 22:58:00,
2013-02-24 17:03:00,43.2,4.8,29.41,ESE,112,7.6,8.1,20,0.00,,,0.00,VWS V13.01,2013-02-24 23:03:00,
2013-02-24 17:08:00,43.0,4.7,29.41,East,90,5.4,6.3,20,0.00,,,0.00,VWS V13.01,2013-02-24 23:08:00,
2013-02-24 17:13:00,42.6,5.4,29.41,NE,45,6.3,8.7,21,0.00,,,0.00,VWS V13.01,2013-02-24 23:13:00,
2013-02-24 17:18:00,42.3,5.1,29.41,East,90,4.9,7.2,21,0.00,,,0.00,VWS V13.01,2013-02-24 23:18:00,
2013-02-24 17:23:00,41.9,4.8,29.41,East,90,6.3,6.3,21,0.00,,,0.00,VWS V13.01,2013-02-24 23:23:00,
2013-02-24 17:28:00,41.4,4.4,29.41,East,90,5.4,5.8,21,0.00,,,0.00,VWS V13.01,2013-02-24 23:28:00,
2013-02-24 17:33:00,40.8,3.9,29.41,East,90,5.4,7.6,21,0.00,,,0.00,VWS V13.01,2013-02-24 23:33:00,
2013-02-24 17:38:00,40.3,3.5,29.41,East,90,6.3,8.1,21,0.00,,,0.00,VWS V13.01,2013-02-24 23:38:00,
2013-02-24 17:43:00,39.9,3.2,29.41,East,90,7.2,7.2,21,0.00,,,0.00,VWS V13.01,2013-02-24 23:43:00,
2013-02-24 17:48:00,39.4,2.7,29.41,East,90,5.8,8.7,21,0.00,,,0.00,VWS V13.01,2013-02-24 23:48:00,
2013-02-24 17:53:00,39.0,2.4,29.41,East,90,4.0,4.0,21,0.00,,,0.00,VWS V13.01,2013-02-24 23:53:00,
2013-02-24 17:58:00,38.8,2.3,29.41,East,90,5.8,6.3,21,0.00,,,0.00,VWS V13.01,2013-02-24 23:58:00,
2013-02-24 18:03:00,38.7,2.1,29.44,East,90,3.6,8.1,21,0.00,,,0.00,VWS V13.01,2013-02-25 00:03:00,
2013-02-24 18:08:00,38.5,2.0,29.44,East,90,5.8,6.7,21,0.00,,,0.00,VWS V13.01,2013-02-25 00:08:00,
2013-02-24 18:13:00,38.3,1.8,29.44,East,90,6.3,8.1,21,0.00,,,0.00,VWS V13.01,2013-02-25 00:13:00,
2013-02-24 18:18:00,37.9,1.5,29.41,East,90,3.6,6.3,21,0.00,,,0.00,VWS V13.01,2013-02-25 00:18:00,
2013-02-24 18:23:00,37.9,4.4,29.41,East,90,6.3,7.6,24,0.00,,,0.00,VWS V13.01,2013-02-25 00:23:00,
2013-02-24 18:28:00,37.8,4.2,29.41,East,90,8.7,8.7,24,0.00,,,0.00,VWS V13.01,2013-02-25 00:28:00,
2013-02-24 18:33:00,37.6,4.1,29.44,East,90,3.6,5.8,24,0.00,,,0.00,VWS V13.01,2013-02-25 00:33:00,
2013-02-24 18:38:00,37.4,3.9,29.44,East,90,6.3,10.5,24,0.00,,,0.00,VWS V13.01,2013-02-25 00:38:00,
2013-02-24 18:43:00,37.4,3.9,29.44,East,90,8.1,8.1,24,0.00,,,0.00,VWS V13.01,2013-02-25 00:43:00,
2013-02-24 18:48:00,37.2,3.8,29.41,SE,135,8.3,8.3,24,0.00,,,0.00,VWS V13.01,2013-02-25 00:48:00,
2013-02-24 18:53:00,37.0,3.6,29.41,East,90,4.0,4.9,24,0.00,,,0.00,VWS V13.01,2013-02-25 00:53:00,
2013-02-24 18:59:00,36.9,3.5,29.41,East,90,5.8,7.2,24,0.00,,,0.00,VWS V13.01,2013-02-25 00:59:00,
2013-02-24 19:04:00,36.7,3.3,29.44,East,90,6.3,6.3,24,0.00,,,0.00,VWS V13.01,2013-02-25 01:04:00,
2013-02-24 19:09:00,36.7,3.3,29.44,East,90,8.7,8.7,24,0.00,,,0.00,VWS V13.01,2013-02-25 01:09:00,
2013-02-24 19:14:00,36.5,3.2,29.44,East,90,3.6,4.9,24,0.00,,,0.00,VWS V13.01,2013-02-25 01:14:00,
2013-02-24 19:19:00,36.3,3.0,29.41,East,90,4.9,5.8,24,0.00,,,0.00,VWS V13.01,2013-02-25 01:19:00,
2013-02-24 19:24:00,36.3,3.0,29.41,East,90,6.3,6.3,24,0.00,,,0.00,VWS V13.01,2013-02-25 01:24:00,
2013-02-24 19:29:00,36.1,2.8,29.41,East,90,3.6,3.6,24,0.00,,,0.00,VWS V13.01,2013-02-25 01:29:00,
2013-02-24 19:34:00,36.1,2.8,29.44,East,90,3.6,3.6,24,0.00,,,0.00,VWS V13.01,2013-02-25 01:34:00,
2013-02-24 19:39:00,36.0,2.7,29.44,East,90,5.4,5.4,24,0.00,,,0.00,VWS V13.01,2013-02-25 01:39:00,
2013-02-24 19:44:00,36.0,2.7,29.44,East,90,5.8,6.3,24,0.00,,,0.00,VWS V13.01,2013-02-25 01:44:00,
2013-02-24 19:49:00,35.8,2.5,29.44,East,90,3.6,3.6,24,0.00,,,0.00,VWS V13.01,2013-02-25 01:49:00,
2013-02-24 19:54:00,35.4,3.1,29.44,East,90,3.1,4.0,25,0.00,,,0.00,VWS V13.01,2013-02-25 01:54:00,
2013-02-24 19:59:00,35.2,3.0,29.44,East,90,2.7,4.0,25,0.00,,,0.00,VWS V13.01,2013-02-25 01:59:00,
2013-02-24 20:04:00,35.1,2.8,29.41,East,90,4.9,4.9,25,0.00,,,0.00,VWS V13.01,2013-02-25 02:04:00,
2013-02-24 20:09:00,35.1,4.5,29.41,East,90,3.1,4.0,27,0.00,,,0.00,VWS V13.01,2013-02-25 02:09:00,
2013-02-24 20:14:00,34.9,4.3,29.41,East,90,4.0,4.0,27,0.00,,,0.00,VWS V13.01,2013-02-25 02:14:00,
2013-02-24 20:19:00,34.9,4.3,29.41,East,90,5.8,5.8,27,0.00,,,0.00,VWS V13.01,2013-02-25 02:19:00,
2013-02-24 20:24:00,34.9,4.3,29.41,East,90,4.9,4.9,27,0.00,,,0.00,VWS V13.01,2013-02-25 02:24:00,
2013-02-24 20:29:00,34.9,4.3,29.41,East,90,3.6,4.9,27,0.00,,,0.00,VWS V13.01,2013-02-25 02:29:00,
2013-02-24 20:34:00,34.7,4.2,29.41,East,90,3.1,4.9,27,0.00,,,0.00,VWS V13.01,2013-02-25 02:34:00,
2013-02-24 20:39:00,34.7,4.2,29.41,East,90,4.0,4.0,27,0.00,,,0.00,VWS V13.01,2013-02-25 02:39:00,
2013-02-24 20:44:00,34.7,4.2,29.41,East,90,3.6,4.0,27,0.00,,,0.00,VWS V13.01,2013-02-25 02:44:00,
2013-02-24 20:49:00,34.7,4.2,29.41,East,90,4.0,4.0,27,0.00,,,0.00,VWS V13.01,2013-02-25 02:49:00,
2013-02-24 20:54:00,34.5,4.0,29.41,East,90,3.1,4.0,27,0.00,,,0.00,VWS V13.01,2013-02-25 02:54:00,
2013-02-24 21:00:00,34.7,4.2,29.41,East,90,5.4,5.4,27,0.00,,,0.00,VWS V13.01,2013-02-25 03:00:00,
2013-02-24 21:05:00,34.7,4.2,29.41,East,90,3.6,3.6,27,0.00,,,0.00,VWS V13.01,2013-02-25 03:05:00,
2013-02-24 21:10:00,34.7,4.2,29.41,East,90,3.6,4.0,27,0.00,,,0.00,VWS V13.01,2013-02-25 03:10:00,
2013-02-24 21:15:00,34.5,4.0,29.41,East,90,2.7,3.6,27,0.00,,,0.00,VWS V13.01,2013-02-25 03:15:00,
2013-02-24 21:20:00,34.5,4.0,29.41,East,90,3.6,4.5,27,0.00,,,0.00,VWS V13.01,2013-02-25 03:20:00,
2013-02-24 21:25:00,34.3,3.8,29.41,East,90,4.9,4.9,27,0.00,,,0.00,VWS V13.01,2013-02-25 03:25:00,
2013-02-24 21:30:00,34.5,4.0,29.41,ESE,112,4.9,5.4,27,0.00,,,0.00,VWS V13.01,2013-02-25 03:30:00,
2013-02-24 21:35:00,34.3,3.8,29.41,East,90,5.4,5.4,27,0.00,,,0.00,VWS V13.01,2013-02-25 03:35:00,
2013-02-24 21:40:00,34.3,3.8,29.41,East,90,4.9,5.8,27,0.00,,,0.00,VWS V13.01,2013-02-25 03:40:00,
2013-02-24 21:45:00,34.3,3.8,29.41,East,90,8.1,8.1,27,0.00,,,0.00,VWS V13.01,2013-02-25 03:45:00,
2013-02-24 21:50:00,34.5,4.0,29.41,East,90,4.5,4.5,27,0.00,,,0.00,VWS V13.01,2013-02-25 03:50:00,
2013-02-24 21:55:00,34.5,4.0,29.41,East,90,4.0,6.3,27,0.00,,,0.00,VWS V13.01,2013-02-25 03:55:00,
2013-02-24 22:00:00,34.7,4.2,29.41,ESE,112,5.4,5.4,27,0.00,,,0.00,VWS V13.01,2013-02-25 04:00:00,
2013-02-24 22:05:00,34.7,4.2,29.41,East,90,4.9,7.2,27,0.00,,,0.00,VWS V13.01,2013-02-25 04:05:00,
2013-02-24 22:10:00,34.7,4.2,29.41,East,90,7.2,7.2,27,0.00,,,0.00,VWS V13.01,2013-02-25 04:10:00,
2013-02-24 22:15:00,34.7,4.2,29.41,East,90,3.6,4.9,27,0.00,,,0.00,VWS V13.01,2013-02-25 04:15:00,
2013-02-24 22:21:00,34.7,6.4,29.41,East,90,4.9,6.3,30,0.00,,,0.00,VWS V13.01,2013-02-25 04:21:00,
2013-02-24 22:26:00,34.7,6.4,29.41,East,90,5.8,5.8,30,0.00,,,0.00,VWS V13.01,2013-02-25 04:26:00,
2013-02-24 22:31:00,34.5,6.3,29.41,ESE,112,5.4,5.4,30,0.00,,,0.00,VWS V13.01,2013-02-25 04:31:00,
2013-02-24 22:36:00,34.5,6.3,29.41,East,90,3.6,4.9,30,0.00,,,0.00,VWS V13.01,2013-02-25 04:36:00,
2013-02-24 22:41:00,34.3,6.1,29.41,East,90,4.0,4.0,30,0.00,,,0.00,VWS V13.01,2013-02-25 04:41:00,
2013-02-24 22:46:00,34.2,6.0,29.41,East,90,2.7,4.0,30,0.00,,,0.00,VWS V13.01,2013-02-25 04:46:00,
2013-02-24 22:51:00,34.0,5.8,29.41,East,90,2.7,3.6,30,0.00,,,0.00,VWS V13.01,2013-02-25 04:51:00,
2013-02-24 22:56:00,33.6,5.5,29.41,East,90,4.0,4.9,30,0.00,,,0.00,VWS V13.01,2013-02-25 04:56:00,
2013-02-24 23:00:00,33.6,5.5,29.41,East,90,3.1,3.6,30,0.00,,,0.00,VWS V13.01,2013-02-25 05:00:00,
2013-02-24 23:02:00,33.6,5.5,29.41,East,90,3.6,4.0,30,0.00,,,0.00,VWS V13.01,2013-02-25 05:02:00,
2013-02-24 23:07:00,33.4,6.1,29.41,East,90,4.0,4.0,31,0.00,,,0.00,VWS V13.01,2013-02-25 05:07:00,
2013-02-24 23:12:00,33.3,5.9,29.41,East,90,4.0,5.8,31,0.00,,,0.00,VWS V13.01,2013-02-25 05:12:00,
2013-02-24 23:17:00,33.3,5.9,29.41,SE,135,4.5,6.3,31,0.00,,,0.00,VWS V13.01,2013-02-25 05:17:00,
2013-02-24 23:22:00,33.3,5.9,29.41,East,90,5.8,5.8,31,0.00,,,0.00,VWS V13.01,2013-02-25 05:22:00,
2013-02-24 23:27:00,33.4,6.1,29.41,East,90,3.6,5.4,31,0.00,,,0.00,VWS V13.01,2013-02-25 05:27:00,
2013-02-24 23:32:00,33.8,6.4,29.41,East,90,3.1,4.5,31,0.00,,,0.00,VWS V13.01,2013-02-25 05:32:00,
2013-02-24 23:37:00,33.8,5.7,29.41,ESE,112,5.4,5.8,30,0.00,,,0.00,VWS V13.01,2013-02-25 05:37:00,
2013-02-24 23:42:00,33.6,6.2,29.41,East,90,3.6,4.0,31,0.00,,,0.00,VWS V13.01,2013-02-25 05:42:00,
2013-02-24 23:47:00,33.6,6.2,29.41,East,90,4.0,4.5,31,0.00,,,0.00,VWS V13.01,2013-02-25 05:47:00,
2013-02-24 23:52:00,33.4,6.1,29.41,East,90,3.6,4.0,31,0.00,,,0.00,VWS V13.01,2013-02-25 05:52:00,
2013-02-24 23:57:00,32.9,5.6,29.41,East,90,4.0,4.0,31,0.00,,,0.00,VWS V13.01,2013-02-25 05:57:00,